Time;durP1;ratioP1;P1;durP2;ratioP2;P2;SDS_P1;SDS_P2;PMS_P1;PMS_P2;Temp;Humidity;BMP_temperature;BMP_pressure;BME280_temperature;BME280_humidity;BME280_pressure;Samples;Min_cycle;Max_cycle;Signal;HPM_P1;HPM_P2
2024/03/04 00:00:20;;;;;;;;;30.00;25.40;;;;;8.30;64.25;100965.53;2029859;28;3600195;-65
2024/03/04 00:01:32;;;;;;;;;34.20;32.20;;;;;8.33;64.25;100968.97;2004533;28;3596052;-65
2024/03/04 00:02:44;;;;;;;;;33.67;29.00;;;;;8.32;64.19;100969.84;1992518;28;3609637;-65
2024/03/04 00:03:55;;;;;;;;;35.00;28.33;;;;;8.33;64.35;100974.19;2003858;28;3616928;-65
2024/03/04 00:05:08;;;;;;;;;32.40;29.80;;;;;8.35;64.32;100978.53;2005358;28;3607483;-65
2024/03/04 00:06:19;;;;;;;;;30.00;26.00;;;;;8.32;64.46;100975.09;1987552;28;2847111;-65
2024/03/04 00:07:30;;;;;;;;;35.67;32.00;;;;;8.32;64.73;100976.88;1993156;28;3613778;-65
2024/03/04 00:08:42;;;;;;;;;32.80;29.80;;;;;8.31;64.03;100978.63;2005913;28;3603320;-65
2024/03/04 00:09:54;;;;;;;;;33.80;30.00;;;;;8.32;64.08;100980.31;2007379;28;3608529;-65
2024/03/04 00:11:07;;;;;;;;;29.00;29.00;;;;;8.32;64.13;100990.81;2002698;28;3595412;-65
2024/03/04 00:12:20;;;;;;;;;27.00;25.00;;;;;8.34;64.53;100988.16;1983993;28;3596079;-65
2024/03/04 00:13:31;;;;;;;;;26.00;23.33;;;;;8.34;63.89;100988.16;1983746;28;3570032;-65
2024/03/04 00:14:43;;;;;;;;;27.40;22.80;;;;;8.35;64.13;100996.88;2029694;28;3574256;-65
2024/03/04 00:15:55;;;;;;;;;27.33;25.33;;;;;8.33;64.12;100989.91;2017726;28;3580452;-65
2024/03/04 00:17:07;;;;;;;;;29.67;24.33;;;;;8.29;63.98;100983.03;2023139;28;3586722;-65
2024/03/04 00:18:19;;;;;;;;;33.00;30.00;;;;;8.33;63.87;100989.06;2036006;28;3585955;-65
2024/03/04 00:19:31;;;;;;;;;30.00;28.00;;;;;8.24;64.04;100974.41;2012850;28;3600267;-65
2024/03/04 00:20:43;;;;;;;;;41.60;34.80;;;;;8.29;63.90;100988.25;2006144;28;3604361;-65
2024/03/04 00:21:56;;;;;;;;;47.80;35.80;;;;;8.28;63.57;100988.28;1989595;28;3617951;-65
2024/03/04 00:23:07;;;;;;;;;47.00;36.00;;;;;8.28;64.02;100986.53;1986387;28;2883613;-65
2024/03/04 00:24:17;;;;;;;;;41.50;33.50;;;;;8.28;63.73;100978.66;2018729;28;2857509;-65
2024/03/04 00:25:29;;;;;;;;;41.67;35.33;;;;;8.27;64.35;100983.94;2008024;28;3606481;-65
2024/03/04 00:26:41;;;;;;;;;36.20;29.20;;;;;8.25;63.97;100988.34;2009130;28;3615828;-65
2024/03/04 00:27:53;;;;;;;;;36.67;31.33;;;;;8.21;64.21;100983.16;2010427;28;3602322;-65
2024/03/04 00:29:06;;;;;;;;;31.00;28.00;;;;;8.25;64.33;100985.75;2013119;28;3600231;-65
2024/03/04 00:30:18;;;;;;;;;37.67;30.00;;;;;8.23;64.53;100996.22;1994013;28;2877334;-65
2024/03/04 00:31:30;;;;;;;;;26.00;24.67;;;;;8.22;64.23;100997.97;2013720;28;3580822;-65
2024/03/04 00:32:41;;;;;;;;;34.00;30.00;;;;;8.20;64.13;100996.28;2016882;28;2864848;-65
2024/03/04 00:33:53;;;;;;;;;29.00;23.00;;;;;8.18;64.23;100996.31;2010104;28;3588733;-65
2024/03/04 00:35:13;;;;;;;;;32.20;28.20;;;;;8.19;64.17;101010.28;2029118;28;3594524;-65
2024/03/04 00:36:26;;;;;;;;;30.00;22.33;;;;;8.16;64.29;101011.19;1984820;28;3604423;-65
2024/03/04 00:37:37;;;;;;;;;29.33;25.33;;;;;8.16;64.13;101011.19;1990781;28;3586720;-65
2024/03/04 00:38:54;;;;;;;;;28.00;24.60;;;;;8.13;64.44;101005.13;2005151;28;3591866;-65
2024/03/04 00:40:08;;;;;;;;;24.29;23.00;;;;;8.12;64.45;101004.28;2014846;28;1848266;-65
2024/03/04 00:41:26;;;;;;;;;26.00;21.67;;;;;8.11;64.55;101002.56;2015924;28;3592951;-65
2024/03/04 00:42:38;;;;;;;;;26.67;23.33;;;;;8.11;64.14;101005.16;2007003;28;3572134;-65
2024/03/04 00:43:50;;;;;;;;;28.33;19.67;;;;;8.09;64.16;101006.97;2009424;28;3599182;-65
2024/03/04 00:45:02;;;;;;;;;19.00;18.00;;;;;8.09;64.20;101013.06;2025200;28;2821080;-65
2024/03/04 00:46:14;;;;;;;;;24.00;21.00;;;;;8.08;63.97;101015.69;2014797;28;3584614;-65
2024/03/04 00:47:25;;;;;;;;;18.00;16.00;;;;;7.99;64.26;101004.50;2024619;28;2804426;-65
2024/03/04 00:48:37;;;;;;;;;25.80;24.20;;;;;8.03;64.32;101012.28;1999929;28;3591880;-65
2024/03/04 00:49:49;;;;;;;;;27.33;25.67;;;;;8.02;64.44;101016.69;2013203;28;3588769;-65
2024/03/04 00:51:01;;;;;;;;;26.33;22.67;;;;;8.00;64.08;101021.06;2009633;28;3612739;-65
2024/03/04 00:52:14;;;;;;;;;26.67;24.33;;;;;7.99;64.30;101020.22;2007578;28;3583566;-65
2024/03/04 00:53:26;;;;;;;;;22.00;21.00;;;;;7.94;64.52;101016.81;2006945;28;3584659;-65
2024/03/04 00:54:38;;;;;;;;;27.00;22.67;;;;;7.96;64.30;101028.13;2024116;28;3589835;-65
2024/03/04 00:55:50;;;;;;;;;29.60;25.40;;;;;7.94;64.39;101024.66;2024284;28;3599229;-65
2024/03/04 00:57:03;;;;;;;;;20.67;20.00;;;;;7.89;64.12;101018.66;1999804;28;3568986;-65
2024/03/04 00:58:15;;;;;;;;;24.00;21.00;;;;;7.87;64.51;101012.59;2007786;28;3580445;-65
2024/03/04 00:59:27;;;;;;;;;32.00;26.00;;;;;7.85;64.11;101012.59;2028816;28;3589791;-65
2024/03/04 01:00:39;;;;;;;;;32.00;26.67;;;;;7.81;64.05;101004.81;1989151;28;3605483;-65
2024/03/04 01:01:50;;;;;;;;;27.33;25.00;;;;;7.78;64.21;101013.59;2007029;28;3582515;-65
2024/03/04 01:03:03;;;;;;;;;31.33;26.00;;;;;7.79;64.39;101012.72;2031273;28;3591918;-65
2024/03/04 01:04:14;;;;;;;;;29.40;28.00;;;;;7.76;64.62;101021.47;2015297;28;3603415;-65
2024/03/04 01:05:27;;;;;;;;;31.40;31.00;;;;;7.73;64.55;101012.81;2004100;28;3605798;-65
2024/03/04 01:06:39;;;;;;;;;40.60;31.20;;;;;7.73;64.60;101018.06;1996080;28;3613759;-65
2024/03/04 01:07:51;;;;;;;;;25.33;25.00;;;;;7.71;64.10;101004.97;2003089;28;3576789;-65
2024/03/04 01:09:03;;;;;;;;;28.67;24.00;;;;;7.69;64.49;101008.50;2018957;28;3597106;-65
2024/03/04 01:10:15;;;;;;;;;37.00;28.33;;;;;7.68;64.62;101012.88;1988135;28;3610656;-65
2024/03/04 01:11:27;;;;;;;;;35.00;31.00;;;;;7.62;64.62;101006.00;2023804;28;3611721;-65
2024/03/04 01:12:39;;;;;;;;;26.33;22.00;;;;;7.62;64.69;101006.00;2005335;28;3586706;-65
2024/03/04 01:13:51;;;;;;;;;32.00;26.80;;;;;7.62;64.62;101020.84;2036446;28;3587696;-65
2024/03/04 01:15:04;;;;;;;;;27.67;22.00;;;;;7.61;64.30;101019.97;2033447;28;3601637;-65
2024/03/04 01:16:15;;;;;;;;;30.33;28.67;;;;;7.57;64.53;101013.06;1991383;28;3605451;-65
2024/03/04 01:17:28;;;;;;;;;30.67;29.33;;;;;7.56;64.54;101015.69;1991734;28;3613794;-65
2024/03/04 01:18:40;;;;;;;;;25.00;20.00;;;;;7.53;64.93;101025.31;2010152;28;2844322;-65
2024/03/04 01:19:53;;;;;;;;;24.00;24.00;;;;;7.51;64.65;101021.84;2001433;28;3582520;-65
2024/03/04 01:21:06;;;;;;;;;22.33;20.33;;;;;7.49;64.87;101018.41;1996884;28;3579485;-65
2024/03/04 01:22:17;;;;;;;;;27.50;25.50;;;;;7.50;64.43;101021.91;2016778;28;2857564;-65
2024/03/04 01:23:29;;;;;;;;;25.33;23.00;;;;;7.49;64.63;101028.00;1991371;28;3571050;-65
2024/03/04 01:24:43;;;;;;;;;25.80;24.00;;;;;7.45;64.56;101027.19;2027008;28;3594990;-65
2024/03/04 01:25:54;;;;;;;;;22.50;20.00;;;;;7.45;64.52;101021.09;1991769;28;2837721;-65
2024/03/04 01:27:06;;;;;;;;;24.00;23.00;;;;;7.38;65.18;101017.72;1990551;28;3592970;-65
2024/03/04 01:28:18;;;;;;;;;24.00;19.00;;;;;7.37;64.78;101014.22;2009309;28;2830510;-65
2024/03/04 01:29:28;;;;;;;;;26.00;23.00;;;;;7.38;65.11;101022.94;2009684;28;2851326;-65
2024/03/04 01:30:40;;;;;;;;;23.33;21.67;;;;;7.37;64.73;101016.84;2008691;28;3568950;-65
2024/03/04 01:31:52;;;;;;;;;19.20;17.20;;;;;7.37;64.67;101022.06;2042615;28;1844039;-65
2024/03/04 01:33:08;;;;;;;;;20.50;18.17;;;;;7.35;64.69;101029.09;2042567;28;1844068;-65
2024/03/04 01:34:18;;;;;;;;;16.50;14.00;;;;;7.32;64.73;101029.13;1985100;28;2799214;-65
2024/03/04 01:35:30;;;;;;;;;18.00;18.00;;;;;7.33;65.10;101028.25;2025917;28;3559961;-65
2024/03/04 01:36:41;;;;;;;;;5.00;4.00;;;;;7.30;64.88;101026.53;2044309;28;2720057;-65
2024/03/04 01:37:53;;;;;;;;;21.33;20.00;;;;;7.29;64.64;101030.03;1989726;28;3573176;-65
2024/03/04 01:39:04;;;;;;;;;22.50;20.00;;;;;7.27;65.31;101026.56;2024435;28;2838839;-65
2024/03/04 01:40:15;;;;;;;;;19.50;18.00;;;;;7.28;64.83;101030.06;2001377;28;2827326;-65
2024/03/04 01:41:27;;;;;;;;;15.50;15.00;;;;;7.25;64.80;101028.34;1982876;28;2797170;-65
2024/03/04 01:42:47;;;;;;;;;19.50;16.00;;;;;7.25;64.84;101022.25;1983940;28;2817456;-65
2024/03/04 01:43:59;;;;;;;;;29.33;23.67;;;;;7.25;65.40;101027.47;1985189;28;3581505;-65
2024/03/04 01:45:28;;;;;;;;;23.50;21.50;;;;;7.25;64.98;101023.13;2025725;28;2848174;-65
2024/03/04 01:46:42;;;;;;;;;19.00;17.00;;;;;7.20;64.91;101017.97;1984700;28;3551298;-65
2024/03/04 01:47:57;;;;;;;;;18.00;17.33;;;;;7.21;64.76;101018.81;2008922;28;3560646;-65
2024/03/04 01:49:11;;;;;;;;;22.50;18.83;;;;;7.18;65.09;101009.28;2036416;28;1846111;-65
2024/03/04 01:50:35;;;;;;;;;20.33;19.67;;;;;7.19;64.86;101016.22;1984290;28;3563837;-65
2024/03/04 01:51:46;;;;;;;;;16.00;16.00;;;;;7.18;65.20;101009.28;2011316;28;2829464;-65
2024/03/04 01:53:02;;;;;;;;;17.33;17.00;;;;;7.19;64.93;101005.75;2021756;28;1834665;-65
2024/03/04 01:54:13;;;;;;;;;17.00;17.00;;;;;7.18;65.05;101003.19;2016754;28;2815895;-65
2024/03/04 01:55:30;;;;;;;;;21.60;16.80;;;;;7.19;65.37;101005.75;2019775;28;1840491;-65
2024/03/04 01:56:40;;;;;;;;;16.50;14.00;;;;;7.20;65.31;100999.66;2016924;28;2808612;-65
2024/03/04 01:57:55;;;;;;;;;17.33;16.00;;;;;7.19;65.33;100995.31;1996796;28;2824276;-65
2024/03/04 01:59:08;;;;;;;;;16.17;14.83;;;;;7.22;65.21;101004.00;2038826;28;1828390;-65
2024/03/04 02:00:23;;;;;;;;;16.00;12.50;;;;;7.18;65.34;100996.22;1986180;28;2806863;-65
2024/03/04 02:01:33;;;;;;;;;15.50;15.00;;;;;7.19;64.98;101000.53;2007884;28;2817955;-65
2024/03/04 02:02:45;;;;;;;;;15.50;11.25;;;;;7.18;65.22;101001.44;2016663;28;1844021;-65
2024/03/04 02:03:56;;;;;;;;;18.50;16.00;;;;;7.17;64.97;101002.31;2012268;28;2816905;-65
2024/03/04 02:05:11;;;;;;;;;20.50;17.00;;;;;7.16;65.16;100997.97;1987152;28;2823183;-65
2024/03/04 02:06:22;;;;;;;;;18.00;17.00;;;;;7.16;65.37;101003.19;1986416;28;2814913;-65
2024/03/04 02:07:33;;;;;;;;;14.50;13.50;;;;;7.14;65.28;100999.72;1992497;28;2797511;-65
2024/03/04 02:08:44;;;;;;;;;16.00;13.50;;;;;7.11;64.98;100991.97;2027889;28;2809637;-65
2024/03/04 02:09:55;;;;;;;;;18.00;16.00;;;;;7.10;64.99;100998.06;2006168;28;2806493;-65
2024/03/04 02:11:06;;;;;;;;;14.00;14.00;;;;;7.09;65.58;100994.56;2004686;28;2810012;-65
2024/03/04 02:12:17;;;;;;;;;17.50;14.50;;;;;7.10;64.81;100998.06;2011437;28;2807547;-65
2024/03/04 02:13:29;;;;;;;;;22.50;21.50;;;;;7.06;64.85;100997.22;1990186;28;2831500;-65
2024/03/04 02:14:40;;;;;;;;;20.00;16.50;;;;;7.02;64.97;100998.16;1975473;28;2812763;-65
2024/03/04 02:15:52;;;;;;;;;17.33;17.00;;;;;7.04;64.80;101000.75;1977278;28;2817995;-65
2024/03/04 02:17:02;;;;;;;;;20.00;18.00;;;;;7.00;65.18;100999.94;2008133;28;2815902;-65
2024/03/04 02:18:20;;;;;;;;;17.00;14.40;;;;;7.02;65.03;101005.13;2036250;28;1836260;-65
2024/03/04 02:19:31;;;;;;;;;20.50;15.00;;;;;6.99;65.09;101003.44;2008770;28;2809641;-65
2024/03/04 02:20:44;;;;;;;;;16.00;12.00;;;;;6.96;65.36;101003.50;1987939;28;2801343;-65
2024/03/04 02:22:01;;;;;;;;;20.40;17.00;;;;;6.95;65.40;101001.75;2001180;28;2831524;-65
2024/03/04 02:23:12;;;;;;;;;17.00;14.50;;;;;6.92;65.39;100994.81;1986023;28;2813788;-65
2024/03/04 02:24:24;;;;;;;;;18.60;16.80;;;;;6.91;64.87;100997.47;2047871;28;1827401;-65
2024/03/04 02:25:36;;;;;;;;;19.00;15.00;;;;;6.88;64.90;100993.13;1993766;28;2807594;-65
2024/03/04 02:26:49;;;;;;;;;13.00;8.67;;;;;6.88;65.50;100993.13;2017861;28;3473172;-65
2024/03/04 02:28:03;;;;;;;;;17.83;15.50;;;;;6.86;65.48;100989.69;2045163;28;1837853;-65
2024/03/04 02:29:13;;;;;;;;;15.50;15.50;;;;;6.83;65.16;100987.09;1993905;28;2812767;-65
2024/03/04 02:30:25;;;;;;;;;16.25;15.50;;;;;6.82;64.97;100987.97;2020471;28;1837789;-65
2024/03/04 02:31:36;;;;;;;;;17.00;17.00;;;;;6.81;65.24;100986.25;1993339;28;2830461;-65
2024/03/04 02:32:46;;;;;;;;;14.50;14.50;;;;;6.80;65.53;100985.38;1995535;28;2817974;-65
2024/03/04 02:33:57;;;;;;;;;14.50;13.50;;;;;6.74;65.15;100982.88;2009205;28;2805863;-65
2024/03/04 02:35:08;;;;;;;;;17.50;15.00;;;;;6.73;65.05;100987.22;2032600;28;2811805;-65
2024/03/04 02:36:20;;;;;;;;;16.00;15.00;;;;;6.74;65.04;100991.56;2004080;28;2814815;-65
2024/03/04 02:37:32;;;;;;;;;19.00;16.50;;;;;6.73;65.34;100988.97;1998533;28;2823171;-65
2024/03/04 02:38:46;;;;;;;;;21.50;18.83;;;;;6.70;65.35;100997.72;2020236;28;1839952;-65
2024/03/04 02:39:57;;;;;;;;;13.50;13.50;;;;;6.68;65.02;100999.47;1992319;28;2803411;-65
2024/03/04 02:41:07;;;;;;;;;17.00;16.00;;;;;6.65;65.45;100996.91;2006363;28;2813813;-65
2024/03/04 02:42:18;;;;;;;;;20.50;19.50;;;;;6.64;65.15;100989.97;1988655;28;2836001;-65
2024/03/04 02:43:29;;;;;;;;;19.50;18.50;;;;;6.62;65.51;100983.88;2010058;28;2831508;-65
2024/03/04 02:44:41;;;;;;;;;21.00;18.67;;;;;6.60;65.41;100986.50;2009286;28;2822094;-65
2024/03/04 02:45:52;;;;;;;;;15.50;14.50;;;;;6.60;65.41;100983.03;2012907;28;2811763;-65
2024/03/04 02:47:03;;;;;;;;;22.00;18.00;;;;;6.59;65.51;100991.75;2001985;28;2830431;-65
2024/03/04 02:48:14;;;;;;;;;13.50;11.50;;;;;6.56;65.51;100991.78;2006470;28;2796093;-65
2024/03/04 02:49:26;;;;;;;;;17.67;15.67;;;;;6.57;65.28;101004.81;2036076;28;2816925;-65
2024/03/04 02:50:39;;;;;;;;;18.33;16.33;;;;;6.56;65.48;101005.72;2045655;28;1841963;-65
2024/03/04 02:51:56;;;;;;;;;18.50;15.50;;;;;6.55;65.39;100998.75;1994347;28;2815880;-65
2024/03/04 02:53:08;;;;;;;;;14.00;13.00;;;;;6.51;65.24;101003.16;1990199;28;2789850;-65
2024/03/04 02:54:19;;;;;;;;;17.50;15.00;;;;;6.51;65.38;101016.22;2008502;28;2814874;-65
2024/03/04 02:55:30;;;;;;;;;11.00;8.33;;;;;6.47;65.43;101018.88;2006188;28;3475363;-66
2024/03/04 02:56:41;;;;;;;;;15.50;14.50;;;;;6.45;65.50;101018.88;2014797;28;2820475;-65
2024/03/04 02:57:54;;;;;;;;;18.17;15.83;;;;;6.42;65.66;101018.91;2014345;28;1841948;-65
2024/03/04 02:59:05;;;;;;;;;18.50;18.50;;;;;6.39;66.16;101021.59;1985041;28;2823701;-65
2024/03/04 03:00:16;;;;;;;;;14.50;13.00;;;;;6.39;66.19;101021.59;2001574;28;2788786;-65
2024/03/04 03:01:27;;;;;;;;;16.00;16.00;;;;;6.39;65.85;101021.59;2020690;28;2820089;-65
2024/03/04 03:02:38;;;;;;;;;21.00;16.00;;;;;6.37;66.19;101023.34;2000225;28;2831489;-65
2024/03/04 03:03:50;;;;;;;;;25.00;21.33;;;;;6.36;65.62;101019.88;2011131;28;3580457;-65
2024/03/04 03:05:01;;;;;;;;;22.75;19.75;;;;;6.37;65.95;101023.34;2033839;28;1840379;-65
2024/03/04 03:06:13;;;;;;;;;22.67;21.00;;;;;6.34;66.03;101024.25;1985998;28;3563766;-65
2024/03/04 03:07:24;;;;;;;;;23.00;20.67;;;;;6.36;65.76;101030.31;2024161;28;3570032;-65
2024/03/04 03:08:37;;;;;;;;;27.50;22.17;;;;;6.33;66.29;101037.28;2041542;28;2842943;-65
2024/03/04 03:09:50;;;;;;;;;27.86;27.86;;;;;6.35;65.82;101038.13;2002958;28;3574215;-65
2024/03/04 03:11:02;;;;;;;;;31.00;22.67;;;;;6.35;65.90;101048.59;2000390;28;3595026;-65
2024/03/04 03:12:14;;;;;;;;;36.00;31.00;;;;;6.32;65.81;101046.91;2024130;28;3598151;-65
2024/03/04 03:13:27;;;;;;;;;17.33;15.33;;;;;6.28;65.99;101040.81;1999523;28;3549717;-65
2024/03/04 03:14:38;;;;;;;;;25.33;22.67;;;;;6.33;66.12;101048.59;2001229;28;3575256;-65
2024/03/04 03:15:50;;;;;;;;;24.67;24.67;;;;;6.33;66.61;101051.22;2017670;28;3578380;-65
2024/03/04 03:17:02;;;;;;;;;27.33;21.00;;;;;6.30;66.14;101043.41;2030530;28;3574207;-65
2024/03/04 03:18:15;;;;;;;;;22.33;21.00;;;;;6.32;66.38;101048.63;2022603;28;3568990;-65
2024/03/04 03:19:27;;;;;;;;;30.33;28.67;;;;;6.32;66.26;101049.50;2008534;28;3584973;-65
2024/03/04 03:20:38;;;;;;;;;26.00;23.00;;;;;6.34;66.71;101054.72;2008235;28;3586710;-65
2024/03/04 03:21:52;;;;;;;;;28.67;23.67;;;;;6.33;66.85;101053.84;2022115;28;3586044;-65
2024/03/04 03:23:03;;;;;;;;;26.67;25.33;;;;;6.35;66.89;101051.19;2008270;28;3581845;-65
2024/03/04 03:24:15;;;;;;;;;22.67;18.67;;;;;6.33;66.68;101052.97;2021574;28;2827405;-65
2024/03/04 03:25:26;;;;;;;;;24.33;24.33;;;;;6.33;66.95;101045.13;2002853;28;3573164;-65
2024/03/04 03:26:38;;;;;;;;;21.00;21.00;;;;;6.32;66.80;101046.91;2027918;28;3564866;-65
2024/03/04 03:27:49;;;;;;;;;22.00;18.50;;;;;6.32;66.35;101040.81;2023405;28;2821127;-65
2024/03/04 03:29:01;;;;;;;;;20.67;20.67;;;;;6.37;66.70;101052.06;1998843;28;2830554;-65
2024/03/04 03:30:12;;;;;;;;;16.50;16.50;;;;;6.36;66.70;101042.50;2014079;28;2819019;-65
2024/03/04 03:31:25;;;;;;;;;23.40;20.40;;;;;6.36;66.82;101043.38;2018985;28;1846079;-65
2024/03/04 03:32:38;;;;;;;;;21.50;19.50;;;;;6.36;66.78;101048.59;1993590;28;2824205;-65
2024/03/04 03:33:49;;;;;;;;;21.67;20.00;;;;;6.36;66.38;101048.59;1993299;28;2830466;-65
2024/03/04 03:35:01;;;;;;;;;20.33;18.67;;;;;6.37;66.54;101044.25;2016216;28;2832198;-65
2024/03/04 03:36:12;;;;;;;;;26.67;22.33;;;;;6.36;66.57;101040.75;2015514;28;3576662;-65
2024/03/04 03:37:25;;;;;;;;;22.83;21.67;;;;;6.35;66.46;101041.63;2044569;28;2846126;-65
2024/03/04 03:38:37;;;;;;;;;26.33;21.00;;;;;6.35;66.86;101043.34;1993210;28;3571069;-65
2024/03/04 03:39:49;;;;;;;;;20.67;19.67;;;;;6.34;66.22;101039.91;2018106;28;3564852;-65
2024/03/04 03:41:00;;;;;;;;;21.75;17.00;;;;;6.36;66.95;101045.09;2034120;28;1836805;-65
2024/03/04 03:42:12;;;;;;;;;21.33;20.33;;;;;6.35;66.27;101043.34;1986116;28;3565854;-65
2024/03/04 03:43:24;;;;;;;;;26.67;23.00;;;;;6.35;66.47;101046.84;2032979;28;3574189;-65
2024/03/04 03:44:37;;;;;;;;;19.33;18.67;;;;;6.34;66.30;101039.91;2044806;28;1842052;-65
2024/03/04 03:45:49;;;;;;;;;24.00;20.67;;;;;6.34;66.07;101033.81;1991985;28;3573164;-65
2024/03/04 03:47:01;;;;;;;;;29.00;25.67;;;;;6.29;66.54;101026.91;2023245;28;3581516;-65
2024/03/04 03:48:18;;;;;;;;;25.17;23.50;;;;;6.30;66.58;101028.63;2036846;28;1846180;-65
2024/03/04 03:49:29;;;;;;;;;28.67;25.00;;;;;6.25;66.33;101026.94;1993249;28;3594004;-65
2024/03/04 03:50:41;;;;;;;;;37.33;29.00;;;;;6.30;66.68;101033.84;2029344;28;3614830;-65
2024/03/04 03:51:53;;;;;;;;;37.40;33.00;;;;;6.23;66.51;101029.56;1998392;28;3616869;-65
2024/03/04 03:53:05;;;;;;;;;31.60;29.00;;;;;6.31;66.45;101039.94;2015383;28;3600188;-65
2024/03/04 03:54:17;;;;;;;;;38.60;32.00;;;;;6.30;66.17;101043.41;2013206;28;3610656;-65
2024/03/04 03:55:29;;;;;;;;;37.20;30.80;;;;;6.30;66.46;101044.28;2012482;28;3610024;-66
2024/03/04 03:56:41;;;;;;;;;40.00;33.80;;;;;6.30;66.25;101049.50;2009206;28;3601293;-65
2024/03/04 03:57:53;;;;;;;;;31.80;30.20;;;;;6.26;66.19;101053.03;2011738;28;3601226;-65
2024/03/04 03:59:05;;;;;;;;;28.67;23.33;;;;;6.30;66.56;101062.56;2009244;28;3588833;-65
2024/03/04 04:00:17;;;;;;;;;40.00;34.67;;;;;6.26;66.09;101055.66;2032714;28;3581535;-65
2024/03/04 04:01:28;;;;;;;;;46.00;39.00;;;;;6.26;66.23;101057.38;2015228;28;2858665;-65
2024/03/04 04:02:41;;;;;;;;;50.86;40.86;;;;;6.18;66.55;101049.63;2005782;28;3612751;-65
2024/03/04 04:03:52;;;;;;;;;42.60;33.40;;;;;6.23;66.46;101054.78;1994607;28;2886006;-65
2024/03/04 04:05:04;;;;;;;;;33.80;30.60;;;;;6.25;66.61;101064.34;2034680;28;3600219;-65
2024/03/04 04:06:16;;;;;;;;;28.00;24.00;;;;;6.22;66.27;101053.97;2026632;28;3589773;-65
2024/03/04 04:07:28;;;;;;;;;25.33;23.00;;;;;6.23;66.18;101057.41;2032574;28;3573174;-65
2024/03/04 04:08:41;;;;;;;;;23.33;20.67;;;;;6.19;66.31;101054.84;2023896;28;2832011;-65
2024/03/04 04:09:52;;;;;;;;;26.00;23.67;;;;;6.20;66.41;101053.06;2007872;28;3580441;-65
2024/03/04 04:11:04;;;;;;;;;34.33;25.33;;;;;6.18;66.31;101054.84;2030834;28;3606496;-65
2024/03/04 04:12:17;;;;;;;;;29.29;23.71;;;;;6.18;66.14;101047.88;2031508;28;3585728;-65
2024/03/04 04:13:29;;;;;;;;;32.00;29.67;;;;;6.19;66.31;101051.38;1994120;28;3594373;-65
2024/03/04 04:14:41;;;;;;;;;29.33;28.33;;;;;6.17;66.92;101053.97;2032554;28;3577698;-65
2024/03/04 04:15:53;;;;;;;;;31.00;29.33;;;;;6.15;66.14;101054.91;2020648;28;3593983;-65
2024/03/04 04:17:04;;;;;;;;;28.33;26.00;;;;;6.12;66.48;101045.34;2004243;28;3578349;-64
2024/03/04 04:18:17;;;;;;;;;30.00;28.20;;;;;6.12;66.16;101047.09;2037525;28;3593946;-65
2024/03/04 04:19:28;;;;;;;;;31.33;27.33;;;;;6.14;66.19;101055.75;2015257;28;3589842;-65
2024/03/04 04:20:40;;;;;;;;;26.33;24.00;;;;;6.11;66.39;101054.03;2020595;28;3572130;-65
2024/03/04 04:21:52;;;;;;;;;26.00;26.00;;;;;6.09;66.24;101045.38;2025191;28;3577312;-65
2024/03/04 04:23:04;;;;;;;;;25.33;24.00;;;;;6.12;66.23;101057.53;2025653;28;3582559;-65
2024/03/04 04:24:17;;;;;;;;;26.33;22.00;;;;;6.10;66.54;101056.69;2032428;28;3565185;-65
2024/03/04 04:25:28;;;;;;;;;29.33;25.67;;;;;6.11;66.51;101059.25;2015879;28;3586706;-65
2024/03/04 04:26:40;;;;;;;;;24.60;22.20;;;;;6.08;66.46;101054.06;2037626;28;3579373;-65
2024/03/04 04:27:52;;;;;;;;;26.33;22.33;;;;;6.07;66.73;101058.41;2025828;28;3566890;-65
2024/03/04 04:29:04;;;;;;;;;23.67;22.00;;;;;6.06;66.52;101058.41;2031202;28;3578424;-65
2024/03/04 04:30:16;;;;;;;;;23.00;23.00;;;;;6.04;66.19;101058.44;2028514;28;3571057;-65
2024/03/04 04:31:28;;;;;;;;;21.67;20.67;;;;;6.05;66.69;101057.53;2027025;28;3567960;-65
2024/03/04 04:32:41;;;;;;;;;27.00;23.33;;;;;6.06;66.69;101069.72;2032892;28;3580484;-65
2024/03/04 04:33:52;;;;;;;;;23.33;21.67;;;;;6.07;66.69;101070.63;2009093;28;3560709;-65
2024/03/04 04:35:05;;;;;;;;;25.67;21.33;;;;;6.06;66.54;101066.22;2032065;28;3570370;-65
2024/03/04 04:36:16;;;;;;;;;26.33;20.67;;;;;6.05;66.53;101069.75;2018368;28;3567945;-65
2024/03/04 04:37:28;;;;;;;;;21.00;20.33;;;;;6.05;66.33;101077.56;2020704;28;3572111;-65
2024/03/04 04:38:40;;;;;;;;;21.00;21.00;;;;;6.02;66.80;101077.59;2012263;28;3575248;-65
2024/03/04 04:39:52;;;;;;;;;19.33;19.00;;;;;6.01;66.68;101081.94;2030734;28;3561706;-65
2024/03/04 04:41:04;;;;;;;;;25.33;18.67;;;;;6.02;66.84;101081.06;2024449;28;3572130;-65
2024/03/04 04:42:15;;;;;;;;;19.00;18.00;;;;;5.99;66.78;101077.59;2015217;28;2826303;-65
2024/03/04 04:43:27;;;;;;;;;18.67;18.67;;;;;6.02;66.41;101080.19;2007025;28;3559615;-65
2024/03/04 04:44:39;;;;;;;;;25.00;20.33;;;;;5.99;66.74;101081.09;2024030;28;3575249;-65
2024/03/04 04:45:50;;;;;;;;;21.50;18.50;;;;;6.01;66.60;101079.31;2009407;28;2819024;-65
2024/03/04 04:47:01;;;;;;;;;23.50;20.00;;;;;6.00;66.69;101088.00;1990951;28;2841924;-65
2024/03/04 04:48:14;;;;;;;;;22.00;19.00;;;;;5.99;66.74;101086.31;1992430;28;2827345;-65
2024/03/04 04:49:25;;;;;;;;;25.67;19.67;;;;;5.99;66.82;101086.31;2007982;28;2833760;-65
2024/03/04 04:50:37;;;;;;;;;21.00;19.00;;;;;5.99;66.29;101095.88;2013992;28;3571100;-65
2024/03/04 04:51:48;;;;;;;;;25.00;21.50;;;;;5.97;66.43;101104.56;2031646;28;2846588;-65
2024/03/04 04:53:01;;;;;;;;;23.17;19.33;;;;;5.95;66.48;101102.88;2025288;28;2831546;-65
2024/03/04 04:54:15;;;;;;;;;25.83;22.00;;;;;5.93;66.60;101102.00;2023633;28;2838834;-65
2024/03/04 04:55:28;;;;;;;;;19.00;18.17;;;;;5.95;66.92;101110.69;2022444;28;1839944;-68
2024/03/04 04:56:42;;;;;;;;;21.83;19.83;;;;;5.89;66.68;101101.16;2020369;28;1841962;-65
2024/03/04 04:57:52;;;;;;;;;18.00;18.00;;;;;5.89;66.56;101102.91;1992272;28;2829436;-65
2024/03/04 04:59:04;;;;;;;;;20.00;18.67;;;;;5.93;66.57;101107.22;2009039;28;2827398;-65
2024/03/04 05:00:16;;;;;;;;;19.00;18.67;;;;;5.92;66.77;101105.50;2013763;28;3561057;-65
2024/03/04 05:01:28;;;;;;;;;26.00;19.00;;;;;5.91;66.71;101106.34;2023688;28;3574183;-65
2024/03/04 05:02:40;;;;;;;;;22.00;19.50;;;;;5.91;66.70;101107.22;2013204;28;2833588;-65
2024/03/04 05:03:52;;;;;;;;;24.67;20.00;;;;;5.91;66.87;101114.19;1984753;28;3565880;-65
2024/03/04 05:05:03;;;;;;;;;21.67;21.00;;;;;5.89;66.98;101114.22;2007985;28;2831577;-64
2024/03/04 05:06:17;;;;;;;;;18.83;17.00;;;;;5.89;66.48;101108.13;2037358;28;1838898;-65
2024/03/04 05:07:27;;;;;;;;;18.50;17.00;;;;;5.85;66.80;101105.53;1977854;28;2810664;-65
2024/03/04 05:08:39;;;;;;;;;18.50;16.50;;;;;5.84;66.61;101106.41;2000992;28;2823522;-65
2024/03/04 05:09:51;;;;;;;;;21.33;17.67;;;;;5.83;66.97;101109.88;1981814;28;3558570;-65
2024/03/04 05:11:08;;;;;;;;;21.00;21.00;;;;;5.85;66.70;101118.56;2022775;28;3583608;-65
2024/03/04 05:12:20;;;;;;;;;24.00;21.00;;;;;5.84;66.62;101115.97;2010792;28;3574666;-65
2024/03/04 05:13:31;;;;;;;;;24.00;22.67;;;;;5.82;66.75;101117.75;2030817;28;3580837;-65
2024/03/04 05:14:46;;;;;;;;;29.00;22.33;;;;;5.82;66.33;101113.41;2028864;28;3587729;-65
2024/03/04 05:15:58;;;;;;;;;21.33;19.33;;;;;5.83;66.70;101128.16;2015999;28;3561688;-65
2024/03/04 05:17:10;;;;;;;;;27.67;25.67;;;;;5.82;66.48;101126.44;2028501;28;3577335;-65
2024/03/04 05:18:23;;;;;;;;;19.67;16.00;;;;;5.80;66.67;101116.88;2036058;28;1840911;-65
2024/03/04 05:19:36;;;;;;;;;28.33;24.00;;;;;5.77;66.32;101117.78;1984007;28;3587728;-65
2024/03/04 05:20:46;;;;;;;;;28.00;24.00;;;;;5.77;66.39;101112.56;2016604;28;2839849;-65
2024/03/04 05:21:58;;;;;;;;;24.00;20.00;;;;;5.78;66.55;101118.66;2033533;28;3569036;-65
2024/03/04 05:23:10;;;;;;;;;25.00;25.00;;;;;5.75;66.63;101116.94;2032534;28;3582539;-65
2024/03/04 05:24:23;;;;;;;;;19.71;19.29;;;;;5.74;66.56;101117.78;2023547;28;3566892;-65